Time;durP1;ratioP1;P1;durP2;ratioP2;P2;SDS_P1;SDS_P2;PMS_P1;PMS_P2;Temp;Humidity;BMP_temperature;BMP_pressure;BME280_temperature;BME280_humidity;BME280_pressure;Samples;Min_cycle;Max_cycle;Signal;HPM_P1;HPM_P2
2022/04/30 00:00:13;;;;;;;21.67;10.38;;;;;;;;;;5066082;28;20053;-76
2022/04/30 00:02:40;;;;;;;24.00;10.15;;;;;;;;;;5067544;28;20052;-75
2022/04/30 00:05:09;;;;;;;25.77;10.07;;;;;;;;;;5063673;28;20064;-75
2022/04/30 00:07:37;;;;;;;36.50;10.45;;;;;;;;;;5067372;28;20405;-75
2022/04/30 00:10:05;;;;;;;15.80;8.55;;;;;;;;;;5059806;28;20055;-75
2022/04/30 00:12:34;;;;;;;16.67;8.13;;;;;;;;;;5065635;28;20519;-75
2022/04/30 00:15:02;;;;;;;22.45;8.88;;;;;;;;;;5066913;28;20079;-75
2022/04/30 00:17:29;;;;;;;13.90;7.90;;;;;;;;;;5066225;28;20050;-75
2022/04/30 00:19:56;;;;;;;17.10;8.60;;;;;;;;;;5066527;28;20147;-75
2022/04/30 00:22:23;;;;;;;23.58;8.32;;;;;;;;;;5064923;28;20135;-75
2022/04/30 00:24:51;;;;;;;15.52;7.60;;;;;;;;;;5066253;28;20114;-76
2022/04/30 00:27:20;;;;;;;21.25;9.73;;;;;;;;;;5065574;28;20057;-75
2022/04/30 00:29:48;;;;;;;17.83;8.82;;;;;;;;;;5058851;28;20163;-75
2022/04/30 00:32:16;;;;;;;17.88;8.73;;;;;;;;;;5065594;28;20432;-75
2022/04/30 00:34:44;;;;;;;24.83;9.68;;;;;;;;;;5065518;28;20607;-75
2022/04/30 00:37:13;;;;;;;19.33;9.63;;;;;;;;;;5064731;28;20052;-74
2022/04/30 00:39:41;;;;;;;23.25;9.57;;;;;;;;;;5062182;28;20079;-74
2022/04/30 00:42:14;;;;;;;17.95;9.23;;;;;;;;;;5079411;28;20045;-75
2022/04/30 00:44:43;;;;;;;19.85;8.48;;;;;;;;;;5055984;28;20167;-75
2022/04/30 00:47:19;;;;;;;18.70;9.30;;;;;;;;;;5066933;28;20828;-75
2022/04/30 00:49:47;;;;;;;15.30;8.65;;;;;;;;;;5065502;28;20114;-75
2022/04/30 00:52:15;;;;;;;24.63;9.65;;;;;;;;;;5066808;28;20098;-75
2022/04/30 00:54:47;;;;;;;27.65;9.52;;;;;;;;;;5066919;28;20048;-75
2022/04/30 00:57:17;;;;;;;18.65;9.90;;;;;;;;;;5055525;28;20135;-75
2022/04/30 00:59:48;;;;;;;22.98;8.75;;;;;;;;;;5079170;28;20049;-74
2022/04/30 01:02:17;;;;;;;25.00;9.00;;;;;;;;;;5059776;28;20048;-75
2022/04/30 01:04:45;;;;;;;17.10;9.63;;;;;;;;;;5066684;28;20557;-75
2022/04/30 01:07:14;;;;;;;22.58;9.43;;;;;;;;;;5074926;28;20063;-74
2022/04/30 01:09:44;;;;;;;20.45;9.02;;;;;;;;;;5063925;28;20052;-75
2022/04/30 01:12:13;;;;;;;19.40;9.48;;;;;;;;;;5055553;28;20136;-75
2022/04/30 01:14:42;;;;;;;18.80;9.73;;;;;;;;;;5047282;28;20049;-75
2022/04/30 01:17:12;;;;;;;21.23;9.00;;;;;;;;;;5064602;28;20366;-75
2022/04/30 01:19:42;;;;;;;20.10;10.18;;;;;;;;;;5066858;28;20048;-75
2022/04/30 01:22:12;;;;;;;19.50;9.50;;;;;;;;;;5052443;28;20728;-75
2022/04/30 01:24:40;;;;;;;16.70;9.32;;;;;;;;;;5064460;28;20143;-75
2022/04/30 01:27:10;;;;;;;25.48;9.73;;;;;;;;;;5064435;28;20056;-75
2022/04/30 01:29:38;;;;;;;18.98;9.15;;;;;;;;;;5065347;28;20053;-75
2022/04/30 01:37:39;;;;;;;25.33;9.23;;;;;;;;;;5051040;28;20561;-75
2022/04/30 01:40:07;;;;;;;15.98;8.45;;;;;;;;;;5077209;28;20421;-75
2022/04/30 01:42:35;;;;;;;19.85;9.23;;;;;;;;;;5048038;28;20092;-75
2022/04/30 01:45:04;;;;;;;20.50;9.57;;;;;;;;;;5054912;28;20067;-75
2022/04/30 01:47:33;;;;;;;19.73;9.07;;;;;;;;;;5064654;28;20087;-75
2022/04/30 01:50:01;;;;;;;15.35;8.88;;;;;;;;;;5058264;28;20135;-75
2022/04/30 01:52:30;;;;;;;19.88;9.50;;;;;;;;;;5060786;28;20106;-75
2022/04/30 01:55:01;;;;;;;24.63;8.73;;;;;;;;;;5064360;28;20071;-75
2022/04/30 01:57:28;;;;;;;21.98;8.75;;;;;;;;;;5054760;28;20076;-75
2022/04/30 01:59:57;;;;;;;26.50;9.00;;;;;;;;;;5081971;28;20056;-75
2022/04/30 02:02:28;;;;;;;18.95;9.18;;;;;;;;;;5064448;28;20048;-75
2022/04/30 02:04:58;;;;;;;18.52;9.07;;;;;;;;;;5062876;28;20071;-75
2022/04/30 02:07:27;;;;;;;15.85;9.15;;;;;;;;;;5067334;28;20068;-75
2022/04/30 02:09:58;;;;;;;19.45;9.38;;;;;;;;;;5061323;28;20140;-75
2022/04/30 02:12:31;;;;;;;20.98;9.18;;;;;;;;;;5062935;28;20051;-75
2022/04/30 02:14:58;;;;;;;18.92;9.02;;;;;;;;;;5065446;28;20652;-75
2022/04/30 02:17:26;;;;;;;22.63;8.57;;;;;;;;;;5077816;28;20131;-75
2022/04/30 02:22:41;;;;;;;17.08;8.70;;;;;;;;;;5066960;28;20139;-76
2022/04/30 02:25:13;;;;;;;19.90;9.52;;;;;;;;;;5065225;28;20083;-75
2022/04/30 02:27:49;;;;;;;23.42;9.63;;;;;;;;;;5066198;28;20130;-75
2022/04/30 02:30:18;;;;;;;16.80;8.90;;;;;;;;;;5063703;28;20071;-75
2022/04/30 02:32:49;;;;;;;15.55;9.05;;;;;;;;;;5062366;28;20094;-75
2022/04/30 02:35:21;;;;;;;23.52;8.95;;;;;;;;;;5053761;28;20057;-75
2022/04/30 02:37:52;;;;;;;18.58;8.93;;;;;;;;;;5044276;28;20049;-75
2022/04/30 02:40:21;;;;;;;19.25;9.13;;;;;;;;;;5058786;28;20052;-76
2022/04/30 02:42:51;;;;;;;18.40;10.13;;;;;;;;;;5064529;28;20135;-75
2022/04/30 02:45:18;;;;;;;19.63;9.65;;;;;;;;;;5057464;28;20048;-74
2022/04/30 02:47:52;;;;;;;23.55;10.45;;;;;;;;;;5054740;28;20052;-75
2022/04/30 02:50:22;;;;;;;21.60;10.40;;;;;;;;;;5066375;28;20049;-75
2022/04/30 02:52:52;;;;;;;15.80;9.65;;;;;;;;;;5066024;28;20048;-75
2022/04/30 02:55:20;;;;;;;16.50;8.70;;;;;;;;;;5066703;28;20047;-75
2022/04/30 03:00:41;;;;;;;24.55;10.77;;;;;;;;;;5057433;28;20048;-75
2022/04/30 03:03:12;;;;;;;27.33;10.63;;;;;;;;;;5057236;28;20158;-76
2022/04/30 03:05:46;;;;;;;19.48;11.10;;;;;;;;;;5065699;28;20044;-75
2022/04/30 03:08:14;;;;;;;28.73;11.10;;;;;;;;;;5066256;28;20064;-74
2022/04/30 03:10:42;;;;;;;23.83;10.27;;;;;;;;;;5066823;28;20083;-75
2022/04/30 03:13:09;;;;;;;21.40;9.55;;;;;;;;;;5065203;28;20123;-75
2022/04/30 03:15:39;;;;;;;22.08;8.88;;;;;;;;;;5073343;28;20155;-75
2022/04/30 03:21:42;;;;;;;18.83;8.98;;;;;;;;;;5057197;28;20044;-75
2022/04/30 03:23:44;;;;;;;13.38;8.05;;;;;;;;;;5053740;28;20135;-75
2022/04/30 03:26:12;;;;;;;17.20;8.60;;;;;;;;;;5070921;28;20509;-75
2022/04/30 03:28:40;;;;;;;15.73;8.65;;;;;;;;;;5057338;28;20466;-74
2022/04/30 03:31:12;;;;;;;20.58;8.65;;;;;;;;;;5065927;28;20063;-75
2022/04/30 03:33:40;;;;;;;22.15;8.45;;;;;;;;;;5064229;28;20147;-75
2022/04/30 03:36:09;;;;;;;20.48;8.98;;;;;;;;;;5065488;28;20084;-75
2022/04/30 03:38:37;;;;;;;17.75;9.30;;;;;;;;;;5065082;28;20088;-75
2022/04/30 03:41:05;;;;;;;20.10;9.68;;;;;;;;;;5063296;28;20127;-75
2022/04/30 03:43:32;;;;;;;22.42;9.88;;;;;;;;;;5067083;28;20088;-75
2022/04/30 03:45:59;;;;;;;22.77;9.20;;;;;;;;;;5066626;28;20083;-74
2022/04/30 03:48:27;;;;;;;16.00;8.32;;;;;;;;;;5066348;28;20107;-74
2022/04/30 03:50:56;;;;;;;18.80;9.20;;;;;;;;;;5062386;28;20088;-74
2022/04/30 03:53:24;;;;;;;20.90;9.57;;;;;;;;;;5066522;28;20067;-74
2022/04/30 03:55:52;;;;;;;24.65;10.38;;;;;;;;;;5056232;28;20841;-74
2022/04/30 03:58:19;;;;;;;20.63;9.82;;;;;;;;;;5063512;28;20103;-74
2022/04/30 04:00:47;;;;;;;21.90;8.90;;;;;;;;;;5054935;28;20520;-74
2022/04/30 04:03:14;;;;;;;19.45;9.07;;;;;;;;;;5065658;28;20113;-74
2022/04/30 04:05:41;;;;;;;27.23;9.20;;;;;;;;;;5065514;28;20131;-74
2022/04/30 04:08:14;;;;;;;23.40;9.73;;;;;;;;;;5068022;28;20152;-74
2022/04/30 04:10:41;;;;;;;19.67;10.35;;;;;;;;;;5051786;28;20056;-74
2022/04/30 04:18:41;;;;;;;23.60;10.45;;;;;;;;;;5056935;28;20711;-74
2022/04/30 04:21:08;;;;;;;18.60;9.52;;;;;;;;;;5052668;28;20072;-74
2022/04/30 04:26:22;;;;;;;23.90;9.68;;;;;;;;;;5071341;28;20122;-76
2022/04/30 04:28:49;;;;;;;21.55;10.38;;;;;;;;;;5065909;28;20052;-76
2022/04/30 04:31:22;;;;;;;26.63;10.57;;;;;;;;;;5070417;28;20164;-75
2022/04/30 04:33:50;;;;;;;24.27;10.02;;;;;;;;;;5063636;28;20135;-74
2022/04/30 04:36:17;;;;;;;21.80;10.52;;;;;;;;;;5063767;28;20159;-74
2022/04/30 04:38:44;;;;;;;24.73;10.20;;;;;;;;;;5064954;28;20128;-74
2022/04/30 04:41:12;;;;;;;21.95;11.25;;;;;;;;;;5053864;28;20124;-74
2022/04/30 04:43:40;;;;;;;23.55;12.25;;;;;;;;;;5044056;28;20095;-74
2022/04/30 04:46:07;;;;;;;20.85;11.75;;;;;;;;;;5057781;28;20105;-74
2022/04/30 04:48:35;;;;;;;25.38;11.00;;;;;;;;;;5062951;28;20079;-75
2022/04/30 04:51:03;;;;;;;22.40;11.27;;;;;;;;;;5061954;28;20176;-74
2022/04/30 04:53:30;;;;;;;27.05;11.25;;;;;;;;;;5056504;28;20163;-74
2022/04/30 04:55:57;;;;;;;20.73;11.90;;;;;;;;;;5065665;28;20092;-74
2022/04/30 04:58:24;;;;;;;33.35;11.80;;;;;;;;;;5047225;28;20148;-75
2022/04/30 05:00:52;;;;;;;27.63;12.70;;;;;;;;;;5049880;28;20156;-74
2022/04/30 05:03:19;;;;;;;25.88;12.45;;;;;;;;;;5059288;28;20052;-74
2022/04/30 05:05:46;;;;;;;28.20;13.45;;;;;;;;;;5055039;28;20067;-74
2022/04/30 05:08:13;;;;;;;28.83;13.07;;;;;;;;;;5065807;28;20080;-75
2022/04/30 05:10:41;;;;;;;28.98;13.52;;;;;;;;;;5064292;28;20581;-75
2022/04/30 05:13:08;;;;;;;30.77;14.82;;;;;;;;;;5053828;28;20144;-75
2022/04/30 05:15:35;;;;;;;30.17;16.05;;;;;;;;;;5065221;28;20054;-74
2022/04/30 05:18:03;;;;;;;31.90;14.73;;;;;;;;;;5056066;28;20128;-75
2022/04/30 05:20:30;;;;;;;30.55;14.30;;;;;;;;;;5061106;28;20128;-75
2022/04/30 05:23:12;;;;;;;35.05;14.88;;;;;;;;;;5064319;28;20089;-75
2022/04/30 05:25:40;;;;;;;28.33;14.52;;;;;;;;;;5064228;28;20165;-75
2022/04/30 05:28:08;;;;;;;32.08;13.52;;;;;;;;;;5064219;28;20452;-74
2022/04/30 05:30:36;;;;;;;38.78;17.90;;;;;;;;;;5068504;28;20088;-74
2022/04/30 05:33:03;;;;;;;28.75;12.90;;;;;;;;;;5069212;28;20131;-73
2022/04/30 05:35:30;;;;;;;30.85;14.07;;;;;;;;;;5063454;28;20116;-73
2022/04/30 05:37:58;;;;;;;55.28;14.75;;;;;;;;;;5068945;28;20141;-73
2022/04/30 05:40:25;;;;;;;20.38;13.07;;;;;;;;;;5060771;28;20135;-74
2022/04/30 05:42:52;;;;;;;28.15;13.52;;;;;;;;;;5063618;28;20128;-74
2022/04/30 05:45:19;;;;;;;28.38;13.73;;;;;;;;;;5063099;28;20156;-76
2022/04/30 05:47:47;;;;;;;30.73;13.63;;;;;;;;;;5063801;28;20052;-76
2022/04/30 05:50:14;;;;;;;24.20;13.73;;;;;;;;;;5080417;28;20131;-75
2022/04/30 05:52:41;;;;;;;31.45;13.95;;;;;;;;;;5064259;28;20155;-75
2022/04/30 05:55:08;;;;;;;25.95;13.75;;;;;;;;;;5065421;28;20118;-75
2022/04/30 05:57:36;;;;;;;29.27;12.27;;;;;;;;;;5064619;28;20152;-74
2022/04/30 06:00:04;;;;;;;31.15;13.10;;;;;;;;;;5063701;28;20127;-74
2022/04/30 06:02:31;;;;;;;28.15;13.32;;;;;;;;;;5065136;28;20091;-74
2022/04/30 06:04:59;;;;;;;22.52;11.88;;;;;;;;;;5062967;28;20053;-74
2022/04/30 06:07:26;;;;;;;26.90;12.45;;;;;;;;;;5061581;28;20480;-76
2022/04/30 06:09:53;;;;;;;32.00;13.77;;;;;;;;;;5052344;28;20149;-76
2022/04/30 06:12:21;;;;;;;28.95;12.20;;;;;;;;;;5062183;28;20125;-76
2022/04/30 06:14:49;;;;;;;22.30;11.23;;;;;;;;;;5049531;28;20076;-76
2022/04/30 06:17:16;;;;;;;25.33;11.63;;;;;;;;;;5039568;28;20084;-77
2022/04/30 06:19:43;;;;;;;17.42;9.82;;;;;;;;;;5040560;28;20056;-77
2022/04/30 06:22:11;;;;;;;21.85;10.30;;;;;;;;;;5049145;28;21316;-76
2022/04/30 06:24:39;;;;;;;17.65;10.10;;;;;;;;;;5054115;28;20053;-77
2022/04/30 06:27:06;;;;;;;23.15;9.30;;;;;;;;;;5064296;28;20056;-77
2022/04/30 06:29:33;;;;;;;18.17;9.15;;;;;;;;;;5052929;28;20155;-78
2022/04/30 06:32:01;;;;;;;14.63;9.02;;;;;;;;;;5058232;28;20516;-76
2022/04/30 06:34:28;;;;;;;23.10;9.18;;;;;;;;;;5044087;28;20052;-76
2022/04/30 06:36:55;;;;;;;20.67;8.43;;;;;;;;;;5056037;28;20580;-78
2022/04/30 06:39:22;;;;;;;17.13;8.60;;;;;;;;;;5033090;28;20059;-79
2022/04/30 06:41:50;;;;;;;14.02;8.23;;;;;;;;;;5071380;28;20121;-79
2022/04/30 06:44:17;;;;;;;20.35;7.22;;;;;;;;;;5065375;28;20093;-80
2022/04/30 06:46:44;;;;;;;14.60;7.82;;;;;;;;;;5061423;28;20130;-79
2022/04/30 06:49:11;;;;;;;19.08;7.30;;;;;;;;;;5061705;28;20472;-78
2022/04/30 06:51:39;;;;;;;17.40;6.97;;;;;;;;;;5059558;28;20075;-78
2022/04/30 06:59:40;;;;;;;16.67;6.70;;;;;;;;;;5057740;28;20074;-79
2022/04/30 07:02:13;;;;;;;16.20;6.45;;;;;;;;;;5067202;28;20132;-79
2022/04/30 07:04:41;;;;;;;14.07;6.47;;;;;;;;;;5058155;28;20094;-78
2022/04/30 07:07:10;;;;;;;21.95;7.07;;;;;;;;;;5063559;28;20048;-79
2022/04/30 07:09:38;;;;;;;10.88;5.07;;;;;;;;;;5081457;28;20084;-79
2022/04/30 07:12:11;;;;;;;21.80;5.45;;;;;;;;;;5068334;28;20044;-79
2022/04/30 07:14:40;;;;;;;9.73;4.80;;;;;;;;;;5068686;28;20471;-79
2022/04/30 07:17:08;;;;;;;10.05;4.10;;;;;;;;;;5063953;28;20044;-78
2022/04/30 07:19:36;;;;;;;7.65;4.43;;;;;;;;;;5067313;28;20044;-79
2022/04/30 07:22:03;;;;;;;11.48;5.25;;;;;;;;;;5067284;28;20072;-79
2022/04/30 07:24:31;;;;;;;17.30;4.85;;;;;;;;;;5067973;28;20102;-78
2022/04/30 07:26:58;;;;;;;13.35;4.30;;;;;;;;;;5067441;28;20131;-78
2022/04/30 07:29:25;;;;;;;9.80;3.85;;;;;;;;;;5065661;28;20148;-77
2022/04/30 07:31:53;;;;;;;8.90;4.45;;;;;;;;;;5065171;28;20180;-78
2022/04/30 07:34:20;;;;;;;11.10;4.40;;;;;;;;;;5066990;28;20075;-78
2022/04/30 07:36:48;;;;;;;8.60;4.35;;;;;;;;;;5067121;28;20083;-79
2022/04/30 07:39:15;;;;;;;7.72;4.57;;;;;;;;;;5065630;28;20657;-79
2022/04/30 07:41:49;;;;;;;19.15;4.90;;;;;;;;;;5065945;28;20394;-79
2022/04/30 07:44:16;;;;;;;10.35;3.78;;;;;;;;;;5066068;28;20133;-79
2022/04/30 07:46:44;;;;;;;9.95;3.97;;;;;;;;;;5067474;28;20078;-79
2022/04/30 07:49:11;;;;;;;9.30;3.83;;;;;;;;;;5067570;28;20072;-79
2022/04/30 07:51:42;;;;;;;8.93;3.88;;;;;;;;;;5067300;28;20053;-79
2022/04/30 07:54:10;;;;;;;9.30;3.83;;;;;;;;;;5067319;28;20048;-79
2022/04/30 07:56:37;;;;;;;7.93;2.92;;;;;;;;;;5067463;28;20132;-79
2022/04/30 07:59:04;;;;;;;12.38;3.75;;;;;;;;;;5066919;28;20099;-79
2022/04/30 08:01:32;;;;;;;7.85;3.58;;;;;;;;;;5067168;28;20086;-79
2022/04/30 08:03:59;;;;;;;13.82;3.47;;;;;;;;;;5067484;28;20071;-79
2022/04/30 08:06:26;;;;;;;6.82;3.20;;;;;;;;;;5065654;28;20484;-79
2022/04/30 08:08:53;;;;;;;13.93;3.10;;;;;;;;;;5064256;28;20139;-79
2022/04/30 08:11:20;;;;;;;7.30;3.05;;;;;;;;;;5062359;28;20131;-79
2022/04/30 08:13:47;;;;;;;7.53;2.80;;;;;;;;;;5067289;28;20076;-80
2022/04/30 08:16:15;;;;;;;8.20;2.90;;;;;;;;;;5065865;28;20086;-78
2022/04/30 08:18:42;;;;;;;11.70;2.90;;;;;;;;;;5062600;28;20072;-79
2022/04/30 08:21:09;;;;;;;5.13;2.42;;;;;;;;;;5066417;28;20107;-80
2022/04/30 08:23:36;;;;;;;8.10;2.97;;;;;;;;;;5066658;28;20076;-79
2022/04/30 08:26:05;;;;;;;7.82;3.13;;;;;;;;;;5066716;28;20117;-80
2022/04/30 08:28:33;;;;;;;7.93;3.25;;;;;;;;;;5067000;28;20060;-80
2022/04/30 08:31:00;;;;;;;8.88;3.05;;;;;;;;;;5065144;28;20076;-78
2022/04/30 08:33:28;;;;;;;7.80;3.30;;;;;;;;;;5067248;28;20158;-78
2022/04/30 08:35:56;;;;;;;6.75;3.45;;;;;;;;;;5065210;28;20076;-78
2022/04/30 08:38:23;;;;;;;6.95;3.00;;;;;;;;;;5062494;28;20131;-78
2022/04/30 08:40:50;;;;;;;15.27;3.97;;;;;;;;;;5063870;28;20848;-78
2022/04/30 08:43:20;;;;;;;6.70;4.85;;;;;;;;;;5066353;28;20131;-78
2022/04/30 08:45:47;;;;;;;9.98;4.43;;;;;;;;;;5066891;28;20048;-79
2022/04/30 08:48:15;;;;;;;9.63;4.53;;;;;;;;;;5066795;28;20079;-79
2022/04/30 08:50:44;;;;;;;13.65;5.53;;;;;;;;;;5065078;28;20079;-79
2022/04/30 08:53:11;;;;;;;14.00;5.90;;;;;;;;;;5067009;28;20135;-78
2022/04/30 08:55:38;;;;;;;11.73;6.07;;;;;;;;;;5066484;28;20079;-78
2022/04/30 08:58:05;;;;;;;15.23;5.97;;;;;;;;;;5065299;28;20135;-79
2022/04/30 09:00:40;;;;;;;13.65;6.15;;;;;;;;;;5066341;28;20815;-79
2022/04/30 09:03:08;;;;;;;24.73;7.45;;;;;;;;;;5066642;28;20843;-79
2022/04/30 09:05:36;;;;;;;17.02;6.45;;;;;;;;;;5066819;28;20090;-78
2022/04/30 09:08:05;;;;;;;33.97;7.47;;;;;;;;;;5047193;28;20569;-78
2022/04/30 09:10:34;;;;;;;13.27;6.70;;;;;;;;;;5058651;28;20287;-78
2022/04/30 09:13:05;;;;;;;13.52;6.40;;;;;;;;;;5066400;28;20087;-79
2022/04/30 09:15:33;;;;;;;17.30;6.75;;;;;;;;;;5066245;28;20171;-80
2022/04/30 09:18:01;;;;;;;10.93;6.70;;;;;;;;;;5066876;28;20497;-80
2022/04/30 09:20:30;;;;;;;37.28;8.65;;;;;;;;;;5067127;28;20326;-80
2022/04/30 09:22:58;;;;;;;20.45;6.57;;;;;;;;;;5067930;28;20080;-79
2022/04/30 09:25:25;;;;;;;10.75;6.32;;;;;;;;;;5067602;28;20815;-79
2022/04/30 09:28:00;;;;;;;15.07;6.80;;;;;;;;;;5067960;28;20514;-79
2022/04/30 09:30:29;;;;;;;13.80;6.45;;;;;;;;;;5066330;28;20152;-79
2022/04/30 09:33:06;;;;;;;10.65;6.32;;;;;;;;;;5066892;28;20056;-79
2022/04/30 09:38:21;;;;;;;11.18;6.18;;;;;;;;;;5066755;28;20569;-79
2022/04/30 09:40:58;;;;;;;10.68;6.60;;;;;;;;;;5066502;28;20135;-79
2022/04/30 09:43:29;;;;;;;11.05;6.05;;;;;;;;;;5066969;28;20048;-80
2022/04/30 09:46:04;;;;;;;14.70;6.38;;;;;;;;;;5065135;28;20726;-79
2022/04/30 09:54:05;;;;;;;11.63;6.68;;;;;;;;;;5066721;28;20052;-79
2022/04/30 09:56:36;;;;;;;11.55;6.25;;;;;;;;;;5066372;28;20739;-79
2022/04/30 09:59:04;;;;;;;16.27;6.22;;;;;;;;;;5065600;28;20140;-79
2022/04/30 10:01:34;;;;;;;13.82;6.28;;;;;;;;;;5066216;28;20063;-79
2022/04/30 10:04:06;;;;;;;12.60;6.00;;;;;;;;;;5067000;28;20059;-79
2022/04/30 10:06:34;;;;;;;16.90;6.75;;;;;;;;;;5064663;28;20055;-79
2022/04/30 10:09:02;;;;;;;15.35;6.55;;;;;;;;;;5066783;28;20123;-79
2022/04/30 10:11:32;;;;;;;10.95;6.18;;;;;;;;;;5065434;28;20084;-79
2022/04/30 10:14:03;;;;;;;9.85;5.88;;;;;;;;;;5066926;28;20127;-80
2022/04/30 10:16:30;;;;;;;12.05;6.28;;;;;;;;;;5066238;28;20254;-79
2022/04/30 10:19:09;;;;;;;17.60;6.32;;;;;;;;;;5066578;28;20055;-80
2022/04/30 10:21:37;;;;;;;14.25;6.18;;;;;;;;;;5065576;28;20088;-80
2022/04/30 10:24:05;;;;;;;16.02;6.15;;;;;;;;;;5067117;28;20132;-81
2022/04/30 10:26:33;;;;;;;10.90;5.25;;;;;;;;;;5064173;28;20131;-80
2022/04/30 10:29:01;;;;;;;16.45;5.93;;;;;;;;;;5066706;28;20080;-80
2022/04/30 10:31:28;;;;;;;10.02;5.97;;;;;;;;;;5066199;28;20133;-80
2022/04/30 10:33:56;;;;;;;13.73;5.13;;;;;;;;;;5065957;28;20089;-80
2022/04/30 10:36:23;;;;;;;9.57;5.65;;;;;;;;;;5065965;28;20124;-80
2022/04/30 10:39:06;;;;;;;40.42;7.78;;;;;;;;;;5066176;28;20088;-79
2022/04/30 10:41:43;;;;;;;10.88;5.80;;;;;;;;;;5064659;28;20045;-80
2022/04/30 10:44:12;;;;;;;10.30;5.60;;;;;;;;;;5065274;28;20190;-80
2022/04/30 10:46:44;;;;;;;11.35;5.18;;;;;;;;;;5066539;28;20167;-80
2022/04/30 10:49:11;;;;;;;11.93;5.35;;;;;;;;;;5065315;28;20131;-81
2022/04/30 10:51:40;;;;;;;10.77;5.55;;;;;;;;;;5067462;28;20308;-80
2022/04/30 10:54:12;;;;;;;9.73;5.10;;;;;;;;;;5066577;28;20056;-79
2022/04/30 10:56:46;;;;;;;11.75;5.75;;;;;;;;;;5065497;28;20084;-79
2022/04/30 10:59:21;;;;;;;11.77;5.75;;;;;;;;;;5065697;28;20743;-79
2022/04/30 11:01:49;;;;;;;11.52;5.00;;;;;;;;;;5064646;28;20052;-81
2022/04/30 11:04:20;;;;;;;10.05;5.82;;;;;;;;;;5064770;28;20056;-78
2022/04/30 11:06:52;;;;;;;11.18;5.20;;;;;;;;;;5069385;28;20157;-78
2022/04/30 11:09:20;;;;;;;16.17;5.75;;;;;;;;;;5069356;28;20408;-79
2022/04/30 11:11:48;;;;;;;9.32;4.97;;;;;;;;;;5068745;28;20507;-79
2022/04/30 11:14:16;;;;;;;14.25;5.15;;;;;;;;;;5069614;28;20152;-78
2022/04/30 11:16:45;;;;;;;13.13;5.40;;;;;;;;;;5068144;28;20717;-80
2022/04/30 11:19:23;;;;;;;10.77;4.72;;;;;;;;;;5069097;28;20055;-80
2022/04/30 11:21:54;;;;;;;9.32;4.93;;;;;;;;;;5069693;28;20534;-80
2022/04/30 11:24:24;;;;;;;12.55;4.50;;;;;;;;;;5070200;28;20164;-80
2022/04/30 11:26:54;;;;;;;10.10;4.68;;;;;;;;;;5069884;28;20091;-79
2022/04/30 11:29:21;;;;;;;13.38;5.07;;;;;;;;;;5069623;28;20078;-80
2022/04/30 11:31:53;;;;;;;11.02;4.72;;;;;;;;;;5069404;28;20056;-80
2022/04/30 11:34:21;;;;;;;9.38;4.43;;;;;;;;;;5069679;28;20056;-78
2022/04/30 11:36:49;;;;;;;6.65;4.22;;;;;;;;;;5070704;28;20147;-79
2022/04/30 11:39:17;;;;;;;12.65;4.40;;;;;;;;;;5069588;28;20777;-79
2022/04/30 11:42:02;;;;;;;10.13;4.50;;;;;;;;;;5068699;28;20057;-79
2022/04/30 11:44:29;;;;;;;8.63;4.10;;;;;;;;;;5069620;28;20072;-79
2022/04/30 11:46:57;;;;;;;8.55;4.43;;;;;;;;;;5067962;28;20131;-79
2022/04/30 11:49:28;;;;;;;8.23;3.92;;;;;;;;;;5069477;28;20503;-79
2022/04/30 11:52:11;;;;;;;8.15;3.75;;;;;;;;;;5069771;28;20059;-79
2022/04/30 11:54:39;;;;;;;7.35;3.72;;;;;;;;;;5069752;28;20049;-80
2022/04/30 11:57:07;;;;;;;10.07;3.53;;;;;;;;;;5067204;28;20092;-79
2022/04/30 11:59:36;;;;;;;6.72;3.72;;;;;;;;;;5067571;28;20572;-80
2022/04/30 12:02:05;;;;;;;7.50;4.05;;;;;;;;;;5067750;28;20761;-80
2022/04/30 12:04:34;;;;;;;8.27;3.60;;;;;;;;;;5069763;28;20056;-79
2022/04/30 12:07:03;;;;;;;6.15;3.95;;;;;;;;;;5067848;28;20145;-79
2022/04/30 12:09:31;;;;;;;9.98;3.88;;;;;;;;;;5067240;28;20508;-79
2022/04/30 12:11:59;;;;;;;6.85;3.20;;;;;;;;;;5068777;28;20127;-79
2022/04/30 12:14:26;;;;;;;14.15;3.97;;;;;;;;;;5068338;28;20139;-79
2022/04/30 12:16:54;;;;;;;9.85;3.30;;;;;;;;;;5072985;28;20163;-79
2022/04/30 12:25:09;;;;;;;14.10;3.78;;;;;;;;;;5068825;28;20123;-79
2022/04/30 12:27:37;;;;;;;6.25;3.72;;;;;;;;;;5066933;28;20409;-79
2022/04/30 12:30:24;;;;;;;8.57;3.53;;;;;;;;;;5067717;28;20059;-79
2022/04/30 12:32:53;;;;;;;5.32;3.33;;;;;;;;;;5068552;28;20109;-79
2022/04/30 12:35:31;;;;;;;8.02;3.50;;;;;;;;;;5068524;28;20131;-79
2022/04/30 12:38:02;;;;;;;9.57;3.28;;;;;;;;;;5067885;28;20493;-80
2022/04/30 12:40:29;;;;;;;6.88;3.28;;;;;;;;;;5067438;28;20072;-79
2022/04/30 12:42:56;;;;;;;18.65;4.32;;;;;;;;;;5067311;28;20533;-79
2022/04/30 12:45:24;;;;;;;6.50;3.00;;;;;;;;;;5067417;28;20123;-79
2022/04/30 12:47:53;;;;;;;5.65;3.17;;;;;;;;;;5066315;28;20131;-80
2022/04/30 12:50:20;;;;;;;8.18;3.33;;;;;;;;;;5066817;28;20135;-79
2022/04/30 12:52:48;;;;;;;6.20;3.10;;;;;;;;;;5067447;28;20464;-79
2022/04/30 12:55:18;;;;;;;3.92;2.80;;;;;;;;;;5067088;28;20163;-79
2022/04/30 12:57:45;;;;;;;6.97;2.90;;;;;;;;;;5065734;28;20087;-78
2022/04/30 13:00:13;;;;;;;3.38;2.80;;;;;;;;;;5067147;28;20214;-79
2022/04/30 13:02:41;;;;;;;12.48;3.50;;;;;;;;;;5066651;28;20152;-78
2022/04/30 13:05:09;;;;;;;3.72;2.65;;;;;;;;;;5066412;28;20135;-78
2022/04/30 13:07:40;;;;;;;6.68;2.95;;;;;;;;;;5066436;28;20694;-78
2022/04/30 13:15:41;;;;;;;5.82;2.83;;;;;;;;;;5066734;28;20139;-77
2022/04/30 13:18:09;;;;;;;5.32;2.95;;;;;;;;;;5065846;28;20164;-77
2022/04/30 13:20:36;;;;;;;5.00;2.45;;;;;;;;;;5064042;28;20138;-77
2022/04/30 13:23:03;;;;;;;5.93;2.72;;;;;;;;;;5065970;28;20164;-78
2022/04/30 13:25:31;;;;;;;5.80;2.70;;;;;;;;;;5066694;28;20558;-78
2022/04/30 13:27:58;;;;;;;6.82;2.22;;;;;;;;;;5065179;28;20110;-78
2022/04/30 13:30:26;;;;;;;3.95;2.53;;;;;;;;;;5065550;28;20076;-78
2022/04/30 13:32:53;;;;;;;6.57;2.40;;;;;;;;;;5065560;28;20048;-78
2022/04/30 13:35:21;;;;;;;4.90;2.63;;;;;;;;;;5065788;28;20075;-77
2022/04/30 13:37:51;;;;;;;7.85;3.33;;;;;;;;;;5065844;28;20051;-77
2022/04/30 13:40:18;;;;;;;4.13;2.70;;;;;;;;;;5065671;28;20106;-77
2022/04/30 13:42:46;;;;;;;8.07;3.15;;;;;;;;;;5066410;28;20652;-76
2022/04/30 13:45:14;;;;;;;5.63;2.75;;;;;;;;;;5066917;28;20461;-77
2022/04/30 13:47:41;;;;;;;9.43;3.28;;;;;;;;;;5065008;28;20087;-77
2022/04/30 13:50:10;;;;;;;5.22;2.72;;;;;;;;;;5066032;28;20569;-77
2022/04/30 13:52:41;;;;;;;4.88;2.65;;;;;;;;;;5066371;28;20135;-77
2022/04/30 13:55:08;;;;;;;12.30;3.03;;;;;;;;;;5066593;28;20167;-77
2022/04/30 13:57:36;;;;;;;6.68;2.88;;;;;;;;;;5066155;28;20135;-77
2022/04/30 14:00:05;;;;;;;4.38;2.38;;;;;;;;;;5066605;28;20392;-77
2022/04/30 14:02:33;;;;;;;5.20;2.13;;;;;;;;;;5066260;28;20056;-77
2022/04/30 14:05:00;;;;;;;9.52;3.08;;;;;;;;;;5066139;28;20051;-77
2022/04/30 14:07:27;;;;;;;7.35;2.50;;;;;;;;;;5065915;28;20500;-77
2022/04/30 14:09:54;;;;;;;5.63;2.53;;;;;;;;;;5064763;28;20549;-77
2022/04/30 14:12:40;;;;;;;9.15;2.42;;;;;;;;;;5066444;28;20352;-76
2022/04/30 14:15:09;;;;;;;6.18;1.88;;;;;;;;;;5066763;28;20066;-77
2022/04/30 14:20:22;;;;;;;4.03;1.67;;;;;;;;;;5066224;28;20155;-80
2022/04/30 14:22:50;;;;;;;8.60;2.08;;;;;;;;;;5066185;28;20564;-79
2022/04/30 14:25:17;;;;;;;2.47;1.75;;;;;;;;;;5065432;28;20149;-80
2022/04/30 14:27:47;;;;;;;4.72;1.40;;;;;;;;;;5066177;28;20144;-79
2022/04/30 14:30:19;;;;;;;2.08;1.30;;;;;;;;;;5066166;28;20056;-79
2022/04/30 14:32:48;;;;;;;5.88;1.50;;;;;;;;;;5066591;28;20048;-79
2022/04/30 14:35:15;;;;;;;7.28;1.70;;;;;;;;;;5066240;28;20049;-79
2022/04/30 14:37:43;;;;;;;6.47;1.67;;;;;;;;;;5065952;28;20562;-79
2022/04/30 14:40:10;;;;;;;6.43;2.08;;;;;;;;;;5067363;28;20139;-79
2022/04/30 14:42:38;;;;;;;2.65;1.25;;;;;;;;;;5069864;28;20048;-79
2022/04/30 14:45:05;;;;;;;4.90;1.23;;;;;;;;;;5070023;28;20037;-80
2022/04/30 14:47:33;;;;;;;4.13;1.17;;;;;;;;;;5070130;28;20131;-79
2022/04/30 14:50:02;;;;;;;8.00;1.02;;;;;;;;;;5070142;28;20537;-79
2022/04/30 14:52:30;;;;;;;4.95;1.30;;;;;;;;;;5069875;28;20475;-79
2022/04/30 14:54:57;;;;;;;5.75;1.52;;;;;;;;;;5069641;28;20786;-79
2022/04/30 14:57:25;;;;;;;5.05;1.08;;;;;;;;;;5069594;28;20084;-79
2022/04/30 14:59:52;;;;;;;1.65;0.90;;;;;;;;;;5070318;28;20048;-79
2022/04/30 15:02:19;;;;;;;3.97;1.08;;;;;;;;;;5069538;28;20127;-78
2022/04/30 15:04:47;;;;;;;4.38;1.40;;;;;;;;;;5069619;28;20133;-79
2022/04/30 15:07:14;;;;;;;5.18;1.40;;;;;;;;;;5069603;28;20049;-79
2022/04/30 15:09:42;;;;;;;3.42;1.50;;;;;;;;;;5068554;28;20076;-79
2022/04/30 15:12:10;;;;;;;6.38;1.20;;;;;;;;;;5068896;28;20064;-79
2022/04/30 15:14:40;;;;;;;6.88;2.30;;;;;;;;;;5069700;28;20477;-78
2022/04/30 15:17:12;;;;;;;4.00;1.48;;;;;;;;;;5068457;28;20048;-79
2022/04/30 15:19:40;;;;;;;6.30;1.83;;;;;;;;;;5069361;28;20052;-79
2022/04/30 15:22:08;;;;;;;6.00;1.70;;;;;;;;;;5067736;28;20763;-79
2022/04/30 15:24:35;;;;;;;3.03;1.48;;;;;;;;;;5067909;28;20079;-79
2022/04/30 15:27:03;;;;;;;4.45;1.20;;;;;;;;;;5068227;28;20083;-77
2022/04/30 15:29:30;;;;;;;6.20;1.65;;;;;;;;;;5070731;28;20071;-77